sensor_id;sensor_type;location;lat;lon;timestamp;P1;durP1;ratioP1;P2;durP2;ratioP2
7179;SDS011;3631;42.152;24.756;2023-05-10T00:00:57;6.17;;;5.57;;
7179;SDS011;3631;42.152;24.756;2023-05-10T00:03:24;10.40;;;6.10;;
7179;SDS011;3631;42.152;24.756;2023-05-10T00:05:51;7.07;;;5.27;;
7179;SDS011;3631;42.152;24.756;2023-05-10T00:08:18;5.60;;;5.00;;
7179;SDS011;3631;42.152;24.756;2023-05-10T00:10:45;5.67;;;5.17;;
7179;SDS011;3631;42.152;24.756;2023-05-10T00:13:14;5.90;;;5.33;;
7179;SDS011;3631;42.152;24.756;2023-05-10T00:15:41;5.63;;;5.10;;
7179;SDS011;3631;42.152;24.756;2023-05-10T00:18:08;6.57;;;5.90;;
7179;SDS011;3631;42.152;24.756;2023-05-10T00:20:35;7.20;;;6.17;;
7179;SDS011;3631;42.152;24.756;2023-05-10T00:23:01;8.37;;;5.73;;
7179;SDS011;3631;42.152;24.756;2023-05-10T00:25:28;8.23;;;5.73;;
7179;SDS011;3631;42.152;24.756;2023-05-10T00:27:55;7.27;;;5.60;;
7179;SDS011;3631;42.152;24.756;2023-05-10T00:30:24;8.47;;;6.17;;
7179;SDS011;3631;42.152;24.756;2023-05-10T00:32:51;5.70;;;5.20;;
7179;SDS011;3631;42.152;24.756;2023-05-10T00:35:17;8.97;;;5.63;;
7179;SDS011;3631;42.152;24.756;2023-05-10T00:37:45;6.43;;;5.73;;
7179;SDS011;3631;42.152;24.756;2023-05-10T00:40:12;6.83;;;5.80;;
7179;SDS011;3631;42.152;24.756;2023-05-10T00:42:39;6.77;;;5.53;;
7179;SDS011;3631;42.152;24.756;2023-05-10T00:45:06;7.27;;;5.80;;
7179;SDS011;3631;42.152;24.756;2023-05-10T00:47:35;9.10;;;6.37;;
7179;SDS011;3631;42.152;24.756;2023-05-10T00:50:02;7.97;;;5.97;;
7179;SDS011;3631;42.152;24.756;2023-05-10T00:52:30;7.70;;;6.77;;
7179;SDS011;3631;42.152;24.756;2023-05-10T00:54:57;8.90;;;6.63;;
7179;SDS011;3631;42.152;24.756;2023-05-10T00:57:24;7.30;;;5.93;;
7179;SDS011;3631;42.152;24.756;2023-05-10T00:59:51;7.70;;;6.43;;
7179;SDS011;3631;42.152;24.756;2023-05-10T01:02:18;13.47;;;7.10;;
7179;SDS011;3631;42.152;24.756;2023-05-10T01:04:46;9.73;;;7.00;;
7179;SDS011;3631;42.152;24.756;2023-05-10T01:07:15;8.03;;;6.50;;
7179;SDS011;3631;42.152;24.756;2023-05-10T01:09:42;9.73;;;6.73;;
7179;SDS011;3631;42.152;24.756;2023-05-10T01:12:09;12.43;;;8.07;;
7179;SDS011;3631;42.152;24.756;2023-05-10T01:14:35;8.83;;;7.17;;
7179;SDS011;3631;42.152;24.756;2023-05-10T01:17:03;8.53;;;7.30;;
7179;SDS011;3631;42.152;24.756;2023-05-10T01:19:31;11.50;;;7.00;;
7179;SDS011;3631;42.152;24.756;2023-05-10T01:22:05;12.70;;;8.50;;
7179;SDS011;3631;42.152;24.756;2023-05-10T01:24:52;11.20;;;9.93;;
7179;SDS011;3631;42.152;24.756;2023-05-10T01:27:47;13.73;;;10.23;;
7179;SDS011;3631;42.152;24.756;2023-05-10T01:33:43;14.67;;;9.93;;
7179;SDS011;3631;42.152;24.756;2023-05-10T01:36:19;13.03;;;10.10;;
7179;SDS011;3631;42.152;24.756;2023-05-10T01:38:53;10.97;;;9.70;;
7179;SDS011;3631;42.152;24.756;2023-05-10T01:41:28;13.27;;;9.60;;
7179;SDS011;3631;42.152;24.756;2023-05-10T01:44:04;15.40;;;9.60;;
7179;SDS011;3631;42.152;24.756;2023-05-10T01:46:41;10.00;;;9.00;;
7179;SDS011;3631;42.152;24.756;2023-05-10T01:49:11;10.27;;;9.27;;
7179;SDS011;3631;42.152;24.756;2023-05-10T01:51:50;11.60;;;8.40;;
7179;SDS011;3631;42.152;24.756;2023-05-10T01:54:21;10.03;;;9.03;;
7179;SDS011;3631;42.152;24.756;2023-05-10T01:56:52;9.03;;;7.20;;
7179;SDS011;3631;42.152;24.756;2023-05-10T01:59:26;12.20;;;8.13;;
7179;SDS011;3631;42.152;24.756;2023-05-10T02:01:57;10.13;;;8.43;;
7179;SDS011;3631;42.152;24.756;2023-05-10T02:04:26;11.37;;;8.83;;
7179;SDS011;3631;42.152;24.756;2023-05-10T02:06:54;12.10;;;9.10;;
7179;SDS011;3631;42.152;24.756;2023-05-10T02:09:22;12.17;;;8.67;;
7179;SDS011;3631;42.152;24.756;2023-05-10T02:11:52;10.87;;;8.60;;
7179;SDS011;3631;42.152;24.756;2023-05-10T02:14:20;11.70;;;8.53;;
7179;SDS011;3631;42.152;24.756;2023-05-10T02:16:49;11.23;;;8.27;;
7179;SDS011;3631;42.152;24.756;2023-05-10T02:19:18;9.63;;;8.60;;
7179;SDS011;3631;42.152;24.756;2023-05-10T02:21:47;11.07;;;8.40;;
7179;SDS011;3631;42.152;24.756;2023-05-10T02:24:17;8.87;;;7.93;;
7179;SDS011;3631;42.152;24.756;2023-05-10T02:26:45;8.47;;;7.67;;
7179;SDS011;3631;42.152;24.756;2023-05-10T02:29:14;9.27;;;7.50;;
7179;SDS011;3631;42.152;24.756;2023-05-10T02:31:43;10.77;;;7.73;;
7179;SDS011;3631;42.152;24.756;2023-05-10T02:34:10;14.07;;;8.07;;
7179;SDS011;3631;42.152;24.756;2023-05-10T02:36:38;9.90;;;7.73;;
7179;SDS011;3631;42.152;24.756;2023-05-10T02:39:08;8.90;;;7.37;;
7179;SDS011;3631;42.152;24.756;2023-05-10T02:41:37;9.37;;;7.00;;
7179;SDS011;3631;42.152;24.756;2023-05-10T02:44:07;14.57;;;7.70;;
7179;SDS011;3631;42.152;24.756;2023-05-10T02:46:35;10.40;;;7.23;;
7179;SDS011;3631;42.152;24.756;2023-05-10T02:49:03;9.37;;;8.13;;
7179;SDS011;3631;42.152;24.756;2023-05-10T02:51:30;12.83;;;7.77;;
7179;SDS011;3631;42.152;24.756;2023-05-10T02:54:01;10.00;;;7.70;;
7179;SDS011;3631;42.152;24.756;2023-05-10T02:56:37;12.00;;;8.53;;
7179;SDS011;3631;42.152;24.756;2023-05-10T02:59:09;9.53;;;8.07;;
7179;SDS011;3631;42.152;24.756;2023-05-10T03:01:36;10.30;;;8.43;;
7179;SDS011;3631;42.152;24.756;2023-05-10T03:04:03;10.83;;;8.00;;
7179;SDS011;3631;42.152;24.756;2023-05-10T03:06:30;11.10;;;8.93;;
7179;SDS011;3631;42.152;24.756;2023-05-10T03:09:00;14.53;;;11.17;;
7179;SDS011;3631;42.152;24.756;2023-05-10T03:11:31;12.07;;;9.80;;
7179;SDS011;3631;42.152;24.756;2023-05-10T03:14:10;16.57;;;11.73;;
7179;SDS011;3631;42.152;24.756;2023-05-10T03:16:52;12.00;;;9.20;;
7179;SDS011;3631;42.152;24.756;2023-05-10T03:19:30;10.87;;;8.97;;
7179;SDS011;3631;42.152;24.756;2023-05-10T03:22:04;10.60;;;8.83;;
7179;SDS011;3631;42.152;24.756;2023-05-10T03:24:36;15.07;;;10.13;;
7179;SDS011;3631;42.152;24.756;2023-05-10T03:27:09;13.60;;;8.60;;
7179;SDS011;3631;42.152;24.756;2023-05-10T03:29:36;15.17;;;9.33;;
7179;SDS011;3631;42.152;24.756;2023-05-10T03:32:05;10.60;;;9.27;;
7179;SDS011;3631;42.152;24.756;2023-05-10T03:34:32;14.50;;;9.67;;
7179;SDS011;3631;42.152;24.756;2023-05-10T03:36:59;13.73;;;10.03;;
7179;SDS011;3631;42.152;24.756;2023-05-10T03:39:26;13.13;;;9.23;;
7179;SDS011;3631;42.152;24.756;2023-05-10T03:41:53;12.57;;;8.57;;
7179;SDS011;3631;42.152;24.756;2023-05-10T03:44:21;9.53;;;8.53;;
7179;SDS011;3631;42.152;24.756;2023-05-10T03:46:48;12.00;;;9.03;;
7179;SDS011;3631;42.152;24.756;2023-05-10T03:49:15;11.00;;;8.87;;
7179;SDS011;3631;42.152;24.756;2023-05-10T03:51:42;16.70;;;9.73;;
7179;SDS011;3631;42.152;24.756;2023-05-10T03:54:09;20.13;;;9.63;;
7179;SDS011;3631;42.152;24.756;2023-05-10T03:56:36;11.33;;;8.70;;
7179;SDS011;3631;42.152;24.756;2023-05-10T03:59:03;13.63;;;8.43;;
7179;SDS011;3631;42.152;24.756;2023-05-10T04:01:34;15.27;;;9.00;;
7179;SDS011;3631;42.152;24.756;2023-05-10T04:04:01;12.80;;;8.90;;
7179;SDS011;3631;42.152;24.756;2023-05-10T04:06:27;12.50;;;8.60;;
7179;SDS011;3631;42.152;24.756;2023-05-10T04:08:54;14.07;;;10.10;;
7179;SDS011;3631;42.152;24.756;2023-05-10T04:11:21;16.13;;;8.93;;
7179;SDS011;3631;42.152;24.756;2023-05-10T04:13:49;17.20;;;10.37;;
7179;SDS011;3631;42.152;24.756;2023-05-10T04:16:16;11.40;;;9.23;;
7179;SDS011;3631;42.152;24.756;2023-05-10T04:18:44;9.07;;;8.17;;
7179;SDS011;3631;42.152;24.756;2023-05-10T04:21:11;9.43;;;8.37;;
7179;SDS011;3631;42.152;24.756;2023-05-10T04:23:38;10.20;;;8.67;;
7179;SDS011;3631;42.152;24.756;2023-05-10T04:26:06;11.90;;;10.00;;
7179;SDS011;3631;42.152;24.756;2023-05-10T04:28:33;12.93;;;9.37;;
7179;SDS011;3631;42.152;24.756;2023-05-10T04:31:00;16.03;;;9.33;;
7179;SDS011;3631;42.152;24.756;2023-05-10T04:33:28;10.97;;;8.67;;
7179;SDS011;3631;42.152;24.756;2023-05-10T04:35:57;9.93;;;8.67;;
7179;SDS011;3631;42.152;24.756;2023-05-10T04:38:24;9.60;;;8.60;;
7179;SDS011;3631;42.152;24.756;2023-05-10T04:40:52;9.13;;;8.10;;
7179;SDS011;3631;42.152;24.756;2023-05-10T04:43:19;11.53;;;8.73;;
7179;SDS011;3631;42.152;24.756;2023-05-10T04:45:46;12.40;;;8.60;;
7179;SDS011;3631;42.152;24.756;2023-05-10T04:48:13;8.97;;;7.93;;
7179;SDS011;3631;42.152;24.756;2023-05-10T04:50:40;13.63;;;8.17;;
7179;SDS011;3631;42.152;24.756;2023-05-10T04:53:08;11.27;;;8.90;;
7179;SDS011;3631;42.152;24.756;2023-05-10T04:55:35;11.03;;;9.27;;
7179;SDS011;3631;42.152;24.756;2023-05-10T04:58:02;13.57;;;8.20;;
7179;SDS011;3631;42.152;24.756;2023-05-10T05:00:29;9.93;;;8.50;;
7179;SDS011;3631;42.152;24.756;2023-05-10T05:02:56;10.67;;;8.50;;
7179;SDS011;3631;42.152;24.756;2023-05-10T05:05:23;13.77;;;8.10;;
7179;SDS011;3631;42.152;24.756;2023-05-10T05:07:50;11.10;;;7.73;;
7179;SDS011;3631;42.152;24.756;2023-05-10T05:10:18;8.13;;;7.37;;
7179;SDS011;3631;42.152;24.756;2023-05-10T05:12:45;9.90;;;7.37;;
7179;SDS011;3631;42.152;24.756;2023-05-10T05:15:12;11.90;;;7.20;;
7179;SDS011;3631;42.152;24.756;2023-05-10T05:17:40;10.43;;;7.97;;
7179;SDS011;3631;42.152;24.756;2023-05-10T05:20:07;7.80;;;7.00;;
7179;SDS011;3631;42.152;24.756;2023-05-10T05:22:35;13.10;;;7.27;;
7179;SDS011;3631;42.152;24.756;2023-05-10T05:25:02;9.23;;;7.60;;
7179;SDS011;3631;42.152;24.756;2023-05-10T05:27:31;7.23;;;6.53;;
7179;SDS011;3631;42.152;24.756;2023-05-10T05:29:58;7.50;;;6.67;;
7179;SDS011;3631;42.152;24.756;2023-05-10T05:32:25;9.37;;;7.17;;
7179;SDS011;3631;42.152;24.756;2023-05-10T05:34:52;9.30;;;6.20;;
7179;SDS011;3631;42.152;24.756;2023-05-10T05:37:19;9.13;;;6.80;;
7179;SDS011;3631;42.152;24.756;2023-05-10T05:39:47;7.77;;;7.00;;
7179;SDS011;3631;42.152;24.756;2023-05-10T05:42:15;8.43;;;6.90;;
7179;SDS011;3631;42.152;24.756;2023-05-10T05:44:45;8.17;;;7.47;;
7179;SDS011;3631;42.152;24.756;2023-05-10T05:47:12;15.40;;;7.50;;
7179;SDS011;3631;42.152;24.756;2023-05-10T05:49:39;7.43;;;6.73;;
7179;SDS011;3631;42.152;24.756;2023-05-10T05:52:05;8.67;;;6.13;;
7179;SDS011;3631;42.152;24.756;2023-05-10T05:54:33;7.67;;;6.90;;
7179;SDS011;3631;42.152;24.756;2023-05-10T05:57:00;11.70;;;6.53;;
7179;SDS011;3631;42.152;24.756;2023-05-10T05:59:27;9.27;;;6.53;;
7179;SDS011;3631;42.152;24.756;2023-05-10T06:01:56;10.90;;;8.10;;
7179;SDS011;3631;42.152;24.756;2023-05-10T06:04:22;7.20;;;6.43;;
7179;SDS011;3631;42.152;24.756;2023-05-10T06:06:49;9.40;;;7.37;;
7179;SDS011;3631;42.152;24.756;2023-05-10T06:09:16;9.93;;;7.10;;
7179;SDS011;3631;42.152;24.756;2023-05-10T06:11:44;8.47;;;6.50;;
7179;SDS011;3631;42.152;24.756;2023-05-10T06:14:11;10.17;;;7.30;;
7179;SDS011;3631;42.152;24.756;2023-05-10T06:16:38;10.03;;;7.60;;
7179;SDS011;3631;42.152;24.756;2023-05-10T06:19:07;8.50;;;6.83;;
7179;SDS011;3631;42.152;24.756;2023-05-10T06:21:33;7.67;;;6.87;;
7179;SDS011;3631;42.152;24.756;2023-05-10T06:24:00;6.87;;;6.10;;
7179;SDS011;3631;42.152;24.756;2023-05-10T06:26:27;10.83;;;8.10;;
7179;SDS011;3631;42.152;24.756;2023-05-10T06:28:54;13.10;;;8.13;;
7179;SDS011;3631;42.152;24.756;2023-05-10T06:31:21;12.60;;;7.70;;
7179;SDS011;3631;42.152;24.756;2023-05-10T06:33:48;10.83;;;7.30;;
7179;SDS011;3631;42.152;24.756;2023-05-10T06:36:17;8.03;;;6.23;;
7179;SDS011;3631;42.152;24.756;2023-05-10T06:38:44;15.60;;;6.10;;
7179;SDS011;3631;42.152;24.756;2023-05-10T06:41:11;10.73;;;7.63;;
7179;SDS011;3631;42.152;24.756;2023-05-10T06:43:38;6.73;;;5.80;;
7179;SDS011;3631;42.152;24.756;2023-05-10T06:46:06;6.77;;;6.07;;
7179;SDS011;3631;42.152;24.756;2023-05-10T06:48:33;14.80;;;7.37;;
7179;SDS011;3631;42.152;24.756;2023-05-10T06:51:00;12.53;;;6.47;;
7179;SDS011;3631;42.152;24.756;2023-05-10T06:53:28;10.10;;;7.70;;
7179;SDS011;3631;42.152;24.756;2023-05-10T06:55:55;8.63;;;7.23;;
7179;SDS011;3631;42.152;24.756;2023-05-10T06:58:22;7.23;;;6.50;;
7179;SDS011;3631;42.152;24.756;2023-05-10T07:00:49;8.00;;;6.47;;
7179;SDS011;3631;42.152;24.756;2023-05-10T07:03:16;10.57;;;6.80;;
7179;SDS011;3631;42.152;24.756;2023-05-10T07:05:43;7.27;;;6.60;;
7179;SDS011;3631;42.152;24.756;2023-05-10T07:08:10;9.03;;;6.50;;
7179;SDS011;3631;42.152;24.756;2023-05-10T07:10:39;7.37;;;6.57;;
7179;SDS011;3631;42.152;24.756;2023-05-10T07:13:06;7.17;;;6.60;;
7179;SDS011;3631;42.152;24.756;2023-05-10T07:15:33;8.20;;;6.20;;
7179;SDS011;3631;42.152;24.756;2023-05-10T07:18:00;7.07;;;6.50;;
7179;SDS011;3631;42.152;24.756;2023-05-10T07:20:27;5.97;;;5.37;;
7179;SDS011;3631;42.152;24.756;2023-05-10T07:22:54;8.87;;;6.50;;
7179;SDS011;3631;42.152;24.756;2023-05-10T07:25:21;10.13;;;6.03;;
7179;SDS011;3631;42.152;24.756;2023-05-10T07:27:49;7.97;;;6.50;;
7179;SDS011;3631;42.152;24.756;2023-05-10T07:30:16;7.90;;;5.40;;
7179;SDS011;3631;42.152;24.756;2023-05-10T07:32:43;5.33;;;4.83;;
7179;SDS011;3631;42.152;24.756;2023-05-10T07:35:10;6.83;;;6.20;;
7179;SDS011;3631;42.152;24.756;2023-05-10T07:37:37;9.37;;;6.23;;
7179;SDS011;3631;42.152;24.756;2023-05-10T07:40:05;11.23;;;6.50;;
7179;SDS011;3631;42.152;24.756;2023-05-10T07:42:33;10.00;;;5.73;;
7179;SDS011;3631;42.152;24.756;2023-05-10T07:45:01;11.40;;;5.87;;
7179;SDS011;3631;42.152;24.756;2023-05-10T07:47:28;7.03;;;5.67;;
7179;SDS011;3631;42.152;24.756;2023-05-10T07:49:55;9.60;;;5.47;;
7179;SDS011;3631;42.152;24.756;2023-05-10T07:52:22;6.97;;;4.60;;
7179;SDS011;3631;42.152;24.756;2023-05-10T07:54:49;5.43;;;4.97;;
7179;SDS011;3631;42.152;24.756;2023-05-10T07:57:15;5.50;;;5.00;;
7179;SDS011;3631;42.152;24.756;2023-05-10T07:59:43;6.83;;;4.97;;
7179;SDS011;3631;42.152;24.756;2023-05-10T08:02:12;6.83;;;4.60;;
7179;SDS011;3631;42.152;24.756;2023-05-10T08:04:39;7.87;;;5.13;;
7179;SDS011;3631;42.152;24.756;2023-05-10T08:07:06;5.30;;;4.90;;
7179;SDS011;3631;42.152;24.756;2023-05-10T08:09:33;4.93;;;4.53;;
7179;SDS011;3631;42.152;24.756;2023-05-10T08:12:00;6.63;;;5.43;;
7179;SDS011;3631;42.152;24.756;2023-05-10T08:14:27;8.30;;;5.30;;
7179;SDS011;3631;42.152;24.756;2023-05-10T08:16:55;7.73;;;5.40;;
7179;SDS011;3631;42.152;24.756;2023-05-10T08:19:24;6.30;;;5.30;;
7179;SDS011;3631;42.152;24.756;2023-05-10T08:21:51;6.73;;;5.20;;
7179;SDS011;3631;42.152;24.756;2023-05-10T08:24:20;8.67;;;5.27;;
7179;SDS011;3631;42.152;24.756;2023-05-10T08:26:47;7.30;;;5.13;;
7179;SDS011;3631;42.152;24.756;2023-05-10T08:29:14;7.67;;;4.90;;
7179;SDS011;3631;42.152;24.756;2023-05-10T08:31:42;4.97;;;4.40;;
7179;SDS011;3631;42.152;24.756;2023-05-10T08:34:09;5.93;;;4.97;;
7179;SDS011;3631;42.152;24.756;2023-05-10T08:36:37;5.63;;;4.93;;
7179;SDS011;3631;42.152;24.756;2023-05-10T08:39:04;5.03;;;4.63;;
7179;SDS011;3631;42.152;24.756;2023-05-10T08:41:31;5.67;;;5.10;;
7179;SDS011;3631;42.152;24.756;2023-05-10T08:44:00;6.13;;;5.53;;
7179;SDS011;3631;42.152;24.756;2023-05-10T08:46:31;6.80;;;4.97;;
7179;SDS011;3631;42.152;24.756;2023-05-10T08:49:01;5.47;;;4.97;;
7179;SDS011;3631;42.152;24.756;2023-05-10T08:51:29;7.13;;;4.53;;
7179;SDS011;3631;42.152;24.756;2023-05-10T08:54:04;9.47;;;5.47;;
7179;SDS011;3631;42.152;24.756;2023-05-10T08:56:31;6.77;;;5.20;;
7179;SDS011;3631;42.152;24.756;2023-05-10T08:58:58;6.07;;;4.53;;
7179;SDS011;3631;42.152;24.756;2023-05-10T09:01:25;6.37;;;5.00;;
7179;SDS011;3631;42.152;24.756;2023-05-10T09:03:53;4.77;;;4.47;;
7179;SDS011;3631;42.152;24.756;2023-05-10T09:06:20;5.37;;;4.53;;
7179;SDS011;3631;42.152;24.756;2023-05-10T09:08:48;9.47;;;5.43;;
7179;SDS011;3631;42.152;24.756;2023-05-10T09:11:17;6.23;;;4.80;;
7179;SDS011;3631;42.152;24.756;2023-05-10T09:13:44;8.47;;;5.70;;
7179;SDS011;3631;42.152;24.756;2023-05-10T09:16:12;8.37;;;5.80;;
7179;SDS011;3631;42.152;24.756;2023-05-10T09:18:39;10.33;;;5.60;;
7179;SDS011;3631;42.152;24.756;2023-05-10T09:21:06;7.60;;;5.60;;
7179;SDS011;3631;42.152;24.756;2023-05-10T09:23:33;10.73;;;5.70;;
7179;SDS011;3631;42.152;24.756;2023-05-10T09:26:03;5.80;;;5.20;;
7179;SDS011;3631;42.152;24.756;2023-05-10T09:28:32;6.97;;;5.47;;
7179;SDS011;3631;42.152;24.756;2023-05-10T09:31:00;7.30;;;5.33;;
7179;SDS011;3631;42.152;24.756;2023-05-10T09:33:27;5.07;;;4.67;;
7179;SDS011;3631;42.152;24.756;2023-05-10T09:35:54;6.67;;;5.70;;
7179;SDS011;3631;42.152;24.756;2023-05-10T09:38:21;5.37;;;4.73;;
7179;SDS011;3631;42.152;24.756;2023-05-10T09:40:51;5.00;;;4.60;;
7179;SDS011;3631;42.152;24.756;2023-05-10T09:43:21;8.00;;;5.10;;
7179;SDS011;3631;42.152;24.756;2023-05-10T09:45:49;5.63;;;5.00;;
7179;SDS011;3631;42.152;24.756;2023-05-10T09:48:16;7.03;;;5.20;;
7179;SDS011;3631;42.152;24.756;2023-05-10T09:50:43;5.50;;;5.10;;
7179;SDS011;3631;42.152;24.756;2023-05-10T09:53:10;10.43;;;5.23;;
7179;SDS011;3631;42.152;24.756;2023-05-10T09:55:41;9.63;;;5.13;;
7179;SDS011;3631;42.152;24.756;2023-05-10T09:58:10;6.70;;;4.80;;
7179;SDS011;3631;42.152;24.756;2023-05-10T10:00:38;5.20;;;4.80;;
7179;SDS011;3631;42.152;24.756;2023-05-10T10:03:11;5.60;;;4.60;;
7179;SDS011;3631;42.152;24.756;2023-05-10T10:05:40;5.73;;;5.10;;
7179;SDS011;3631;42.152;24.756;2023-05-10T10:08:07;8.57;;;5.03;;
7179;SDS011;3631;42.152;24.756;2023-05-10T10:10:34;5.73;;;5.23;;
7179;SDS011;3631;42.152;24.756;2023-05-10T10:13:02;5.73;;;5.13;;
7179;SDS011;3631;42.152;24.756;2023-05-10T10:15:29;4.97;;;4.57;;
7179;SDS011;3631;42.152;24.756;2023-05-10T10:17:57;7.27;;;4.80;;
7179;SDS011;3631;42.152;24.756;2023-05-10T10:20:26;5.30;;;4.90;;
7179;SDS011;3631;42.152;24.756;2023-05-10T10:22:53;5.10;;;4.70;;
7179;SDS011;3631;42.152;24.756;2023-05-10T10:25:20;5.70;;;4.90;;
7179;SDS011;3631;42.152;24.756;2023-05-10T10:27:49;5.70;;;5.10;;
7179;SDS011;3631;42.152;24.756;2023-05-10T10:30:31;7.40;;;5.00;;
7179;SDS011;3631;42.152;24.756;2023-05-10T10:36:13;7.93;;;5.53;;
7179;SDS011;3631;42.152;24.756;2023-05-10T10:38:56;7.17;;;4.80;;
7179;SDS011;3631;42.152;24.756;2023-05-10T10:41:29;6.17;;;5.57;;
7179;SDS011;3631;42.152;24.756;2023-05-10T10:47:02;6.10;;;5.57;;
7179;SDS011;3631;42.152;24.756;2023-05-10T10:50:04;6.63;;;5.67;;
7179;SDS011;3631;42.152;24.756;2023-05-10T10:52:34;5.43;;;5.00;;
7179;SDS011;3631;42.152;24.756;2023-05-10T10:55:02;7.20;;;6.03;;
7179;SDS011;3631;42.152;24.756;2023-05-10T10:57:32;5.57;;;5.20;;
7179;SDS011;3631;42.152;24.756;2023-05-10T11:00:17;5.60;;;5.20;;
7179;SDS011;3631;42.152;24.756;2023-05-10T11:02:46;6.10;;;5.50;;
7179;SDS011;3631;42.152;24.756;2023-05-10T11:08:17;6.00;;;5.60;;
7179;SDS011;3631;42.152;24.756;2023-05-10T11:10:52;6.13;;;5.73;;
7179;SDS011;3631;42.152;24.756;2023-05-10T11:13:28;6.73;;;6.07;;
7179;SDS011;3631;42.152;24.756;2023-05-10T11:15:56;7.47;;;6.67;;
7179;SDS011;3631;42.152;24.756;2023-05-10T11:18:24;8.67;;;6.30;;
7179;SDS011;3631;42.152;24.756;2023-05-10T11:20:54;8.70;;;6.13;;
7179;SDS011;3631;42.152;24.756;2023-05-10T11:23:28;6.13;;;5.60;;
7179;SDS011;3631;42.152;24.756;2023-05-10T11:25:57;8.03;;;5.90;;
7179;SDS011;3631;42.152;24.756;2023-05-10T11:28:25;6.10;;;5.70;;
7179;SDS011;3631;42.152;24.756;2023-05-10T11:30:53;6.87;;;6.20;;
7179;SDS011;3631;42.152;24.756;2023-05-10T11:33:21;9.13;;;6.10;;
7179;SDS011;3631;42.152;24.756;2023-05-10T11:35:48;6.10;;;5.70;;
7179;SDS011;3631;42.152;24.756;2023-05-10T11:38:15;6.40;;;5.63;;
7179;SDS011;3631;42.152;24.756;2023-05-10T11:40:43;6.63;;;5.70;;
7179;SDS011;3631;42.152;24.756;2023-05-10T11:43:10;6.20;;;5.70;;
7179;SDS011;3631;42.152;24.756;2023-05-10T11:45:37;5.30;;;4.83;;
7179;SDS011;3631;42.152;24.756;2023-05-10T11:48:06;6.30;;;5.30;;
7179;SDS011;3631;42.152;24.756;2023-05-10T11:50:33;5.20;;;4.90;;
7179;SDS011;3631;42.152;24.756;2023-05-10T11:53:00;5.23;;;4.87;;
7179;SDS011;3631;42.152;24.756;2023-05-10T11:55:27;5.77;;;5.40;;
7179;SDS011;3631;42.152;24.756;2023-05-10T11:58:00;8.37;;;6.40;;
7179;SDS011;3631;42.152;24.756;2023-05-10T12:00:29;6.37;;;5.97;;
7179;SDS011;3631;42.152;24.756;2023-05-10T12:02:56;7.50;;;6.63;;
7179;SDS011;3631;42.152;24.756;2023-05-10T12:05:23;6.73;;;6.33;;
7179;SDS011;3631;42.152;24.756;2023-05-10T12:07:51;7.03;;;6.50;;
7179;SDS011;3631;42.152;24.756;2023-05-10T12:10:18;6.77;;;6.17;;
7179;SDS011;3631;42.152;24.756;2023-05-10T12:12:52;6.57;;;6.17;;
7179;SDS011;3631;42.152;24.756;2023-05-10T12:15:20;6.57;;;6.17;;
7179;SDS011;3631;42.152;24.756;2023-05-10T12:17:49;6.67;;;6.17;;
7179;SDS011;3631;42.152;24.756;2023-05-10T12:20:17;6.97;;;6.43;;
7179;SDS011;3631;42.152;24.756;2023-05-10T12:22:46;6.50;;;6.00;;
7179;SDS011;3631;42.152;24.756;2023-05-10T12:25:15;6.97;;;6.47;;
7179;SDS011;3631;42.152;24.756;2023-05-10T12:27:47;7.07;;;6.63;;
7179;SDS011;3631;42.152;24.756;2023-05-10T12:30:18;10.07;;;6.97;;
7179;SDS011;3631;42.152;24.756;2023-05-10T12:32:47;8.23;;;6.70;;
7179;SDS011;3631;42.152;24.756;2023-05-10T12:35:14;7.77;;;7.07;;
7179;SDS011;3631;42.152;24.756;2023-05-10T12:37:42;7.27;;;6.57;;
7179;SDS011;3631;42.152;24.756;2023-05-10T12:40:10;7.63;;;6.47;;
7179;SDS011;3631;42.152;24.756;2023-05-10T12:42:38;7.63;;;7.07;;
7179;SDS011;3631;42.152;24.756;2023-05-10T12:45:06;8.07;;;7.27;;
7179;SDS011;3631;42.152;24.756;2023-05-10T12:47:35;8.03;;;7.53;;
7179;SDS011;3631;42.152;24.756;2023-05-10T12:50:02;7.53;;;7.03;;
7179;SDS011;3631;42.152;24.756;2023-05-10T12:52:30;7.83;;;7.07;;
7179;SDS011;3631;42.152;24.756;2023-05-10T12:54:58;7.40;;;6.80;;
7179;SDS011;3631;42.152;24.756;2023-05-10T12:57:26;11.00;;;8.10;;
7179;SDS011;3631;42.152;24.756;2023-05-10T12:59:53;9.40;;;8.57;;
7179;SDS011;3631;42.152;24.756;2023-05-10T13:02:20;9.13;;;8.23;;
7179;SDS011;3631;42.152;24.756;2023-05-10T13:04:49;11.97;;;8.67;;
7179;SDS011;3631;42.152;24.756;2023-05-10T13:07:17;10.90;;;9.80;;
7179;SDS011;3631;42.152;24.756;2023-05-10T13:09:44;9.27;;;8.50;;
7179;SDS011;3631;42.152;24.756;2023-05-10T13:12:11;9.10;;;8.13;;
7179;SDS011;3631;42.152;24.756;2023-05-10T13:14:37;8.90;;;8.10;;
7179;SDS011;3631;42.152;24.756;2023-05-10T13:17:05;10.10;;;8.27;;
7179;SDS011;3631;42.152;24.756;2023-05-10T13:19:32;8.27;;;7.67;;
7179;SDS011;3631;42.152;24.756;2023-05-10T13:22:01;9.57;;;8.67;;
7179;SDS011;3631;42.152;24.756;2023-05-10T13:24:28;9.63;;;8.63;;
7179;SDS011;3631;42.152;24.756;2023-05-10T13:26:55;7.60;;;7.10;;
7179;SDS011;3631;42.152;24.756;2023-05-10T13:29:22;7.13;;;6.60;;
7179;SDS011;3631;42.152;24.756;2023-05-10T13:31:48;6.43;;;6.07;;
7179;SDS011;3631;42.152;24.756;2023-05-10T13:34:15;7.60;;;6.87;;
7179;SDS011;3631;42.152;24.756;2023-05-10T13:36:45;8.37;;;7.67;;
7179;SDS011;3631;42.152;24.756;2023-05-10T13:39:13;8.33;;;7.77;;
7179;SDS011;3631;42.152;24.756;2023-05-10T13:41:40;8.00;;;7.33;;
7179;SDS011;3631;42.152;24.756;2023-05-10T13:44:07;8.87;;;8.17;;
7179;SDS011;3631;42.152;24.756;2023-05-10T13:46:34;9.07;;;8.30;;
7179;SDS011;3631;42.152;24.756;2023-05-10T13:49:02;9.00;;;8.30;;
7179;SDS011;3631;42.152;24.756;2023-05-10T13:51:29;9.37;;;8.50;;
7179;SDS011;3631;42.152;24.756;2023-05-10T13:53:57;9.80;;;8.87;;
7179;SDS011;3631;42.152;24.756;2023-05-10T13:56:41;9.33;;;8.17;;
7179;SDS011;3631;42.152;24.756;2023-05-10T13:59:09;9.37;;;8.57;;
7179;SDS011;3631;42.152;24.756;2023-05-10T14:01:36;11.20;;;9.20;;
7179;SDS011;3631;42.152;24.756;2023-05-10T14:04:03;9.40;;;8.50;;
7179;SDS011;3631;42.152;24.756;2023-05-10T14:06:30;8.80;;;8.00;;
7179;SDS011;3631;42.152;24.756;2023-05-10T14:08:57;9.27;;;8.57;;
7179;SDS011;3631;42.152;24.756;2023-05-10T14:11:24;9.10;;;8.23;;
7179;SDS011;3631;42.152;24.756;2023-05-10T14:13:52;8.37;;;7.67;;
7179;SDS011;3631;42.152;24.756;2023-05-10T14:16:19;7.63;;;7.13;;
7179;SDS011;3631;42.152;24.756;2023-05-10T14:18:46;11.40;;;10.37;;
7179;SDS011;3631;42.152;24.756;2023-05-10T14:21:13;9.43;;;7.83;;
7179;SDS011;3631;42.152;24.756;2023-05-10T14:23:40;8.10;;;7.50;;
7179;SDS011;3631;42.152;24.756;2023-05-10T14:26:07;8.10;;;7.50;;
7179;SDS011;3631;42.152;24.756;2023-05-10T14:28:34;10.63;;;8.90;;
7179;SDS011;3631;42.152;24.756;2023-05-10T14:31:02;8.73;;;7.87;;
7179;SDS011;3631;42.152;24.756;2023-05-10T14:33:30;9.00;;;8.10;;
7179;SDS011;3631;42.152;24.756;2023-05-10T14:35:57;9.57;;;8.60;;
7179;SDS011;3631;42.152;24.756;2023-05-10T14:38:25;7.80;;;7.23;;
7179;SDS011;3631;42.152;24.756;2023-05-10T14:40:52;7.87;;;7.17;;
7179;SDS011;3631;42.152;24.756;2023-05-10T14:43:18;7.10;;;6.60;;
7179;SDS011;3631;42.152;24.756;2023-05-10T14:45:45;7.07;;;6.50;;
7179;SDS011;3631;42.152;24.756;2023-05-10T14:48:14;9.37;;;6.40;;
7179;SDS011;3631;42.152;24.756;2023-05-10T14:50:42;6.13;;;5.60;;
7179;SDS011;3631;42.152;24.756;2023-05-10T14:56:04;5.57;;;5.17;;
7179;SDS011;3631;42.152;24.756;2023-05-10T14:58:31;6.13;;;5.63;;
7179;SDS011;3631;42.152;24.756;2023-05-10T15:00:58;6.23;;;5.80;;
7179;SDS011;3631;42.152;24.756;2023-05-10T15:03:26;7.13;;;6.53;;
7179;SDS011;3631;42.152;24.756;2023-05-10T15:05:53;5.90;;;5.50;;
7179;SDS011;3631;42.152;24.756;2023-05-10T15:08:21;6.57;;;5.93;;
7179;SDS011;3631;42.152;24.756;2023-05-10T15:10:49;6.53;;;6.13;;
7179;SDS011;3631;42.152;24.756;2023-05-10T15:13:16;6.47;;;6.03;;
7179;SDS011;3631;42.152;24.756;2023-05-10T15:15:43;6.50;;;5.90;;
7179;SDS011;3631;42.152;24.756;2023-05-10T15:18:10;7.37;;;6.33;;
7179;SDS011;3631;42.152;24.756;2023-05-10T15:20:38;8.60;;;6.67;;